Weather History for Brownwood, TX

Change the Weather History Date:

Sunday, February 17, 2013

  Actual Average (KABI) Record (KABI)
Temperature  
Mean Temperature 48 °F 49 °F  
Max Temperature 71 °F 61 °F 85 °F (1897)
Min Temperature 26 °F 37 °F 11 °F (1910)
Degree Days  
Heating Degree Days 16 16  
Month to date heating degree days 301  
Since 1 July heating degree days 1970  
Cooling Degree Days 0 0  
Month to date cooling degree days 0  
Year to date cooling degree days 1  
Moisture  
Dew Point 30 °F    
Average Humidity 51    
Maximum Humidity 86    
Minimum Humidity 16    
Precipitation  
Precipitation 0.00 in 0.05 in 0.87 in (1911)
Month to date precipitation 0.80  
Year to date precipitation 1.82  
Sea Level Pressure  
Sea Level Pressure 30.02 in    
Wind  
Wind Speed 7 mph (South)    
Max Wind Speed 22 mph    
Max Gust Speed 31 mph    
Visibility 10 miles    
Events      
T = Trace of Precipitation, MM = Missing Value Source: NWS Daily Summary

Daily Weather History Graph

Daily Weather History Graph

Search for Another Location

Airport:

Trip Planner

Search our weather history database for the weather conditions in past years. The results will help you decide how hot, cold, wet, or windy it might be!

Date:

Astronomy

Feb. 17, 2013 Rise Set
Actual Time 7:15 AM CST 6:24 PM CST
Civil Twilight 6:50 AM CST 6:49 PM CST
Nautical Twilight 6:22 AM CST 7:17 PM CST
Astronomical Twilight 5:53 AM CST 7:46 PM CST
Moon 11:38 AM CST (2/17) 12:53 AM CST (2/17)
Length of Visible Light 11h 58m
Length of Day
11h 08m
Waxing Crescent, 49% of the Moon is Illuminated
Feb 17
Waxing Crescent
Feb 17
First Quarter
Feb 25
Full
Mar 4
Last Quarter
Mar 11
New

Hourly Weather History & Observations

Time (CST) Temp. Windchill Dew Point Humidity Pressure Visibility Wind Dir Wind Speed Gust Speed Precip Events Conditions
12:15 AM 37.4 °F - 26.6 °F 65% 30.16 in 10.0 mi Calm Calm - N/A   Partly Cloudy
12:35 AM 35.6 °F - 26.6 °F 70% 30.16 in 10.0 mi Calm Calm - N/A   Clear
12:55 AM 33.8 °F - 26.6 °F 75% 30.16 in 10.0 mi Calm Calm - N/A   Clear
1:15 AM 32.0 °F - 26.6 °F 80% 30.15 in 10.0 mi Calm Calm - N/A   Clear
1:35 AM 32.0 °F - 26.6 °F 80% 30.15 in 10.0 mi Calm Calm - N/A   Clear
1:55 AM 32.0 °F - 26.6 °F 80% 30.15 in 10.0 mi Calm Calm - N/A   Clear
2:15 AM 32.0 °F - 26.6 °F 80% 30.15 in 10.0 mi Calm Calm - N/A   Partly Cloudy
2:35 AM 30.2 °F - 24.8 °F 80% 30.14 in 10.0 mi Calm Calm - N/A   Clear
2:55 AM 32.0 °F 28.7 °F 24.8 °F 75% 30.14 in 10.0 mi East 3.5 mph - N/A   Clear
3:15 AM 28.4 °F - 24.8 °F 86% 30.13 in 10.0 mi Calm Calm - N/A   Clear
3:35 AM 30.2 °F 25.4 °F 24.8 °F 80% 30.13 in 10.0 mi East 4.6 mph - N/A   Clear
3:55 AM 28.4 °F - 24.8 °F 86% 30.12 in 10.0 mi Calm Calm - N/A   Clear
4:15 AM 30.2 °F - 24.8 °F 80% 30.12 in 10.0 mi Calm Calm - N/A   Clear
4:35 AM 32.0 °F - 24.8 °F 75% 30.12 in 10.0 mi Calm Calm - N/A   Clear
4:55 AM 28.4 °F - 24.8 °F 86% 30.12 in 10.0 mi Calm Calm - N/A   Clear
5:15 AM 28.4 °F - 24.8 °F 86% 30.12 in 10.0 mi Calm Calm - N/A   Clear
5:35 AM 30.2 °F - 24.8 °F 80% 30.12 in 10.0 mi Calm Calm - N/A   Clear
5:55 AM 28.4 °F - 24.8 °F 86% 30.12 in 10.0 mi Calm Calm - N/A   Clear
6:15 AM 28.4 °F - 24.8 °F 86% 30.12 in 10.0 mi Calm Calm - N/A   Clear
6:35 AM 26.6 °F - 23.0 °F 86% 30.12 in 10.0 mi Calm Calm - N/A   Clear
6:55 AM 28.4 °F - 24.8 °F 86% 30.12 in 10.0 mi Calm Calm - N/A   Clear
7:15 AM 32.0 °F - 24.8 °F 75% 30.12 in 10.0 mi Calm Calm - N/A   Clear
7:35 AM 28.4 °F - 24.8 °F 86% 30.12 in 10.0 mi Calm Calm - N/A   Clear
7:55 AM 32.0 °F - 26.6 °F 80% 30.12 in 10.0 mi Calm Calm - N/A   Clear
8:15 AM 35.6 °F - 28.4 °F 75% 30.12 in 10.0 mi Calm Calm - N/A   Clear
8:35 AM 39.2 °F - 30.2 °F 70% 30.13 in 10.0 mi Calm Calm - N/A   Clear
8:55 AM 44.6 °F - 32.0 °F 61% 30.13 in 10.0 mi Calm Calm - N/A   Clear
9:15 AM 48.2 °F - 28.4 °F 46% 30.13 in 10.0 mi South 5.8 mph - N/A   Clear
9:35 AM 53.6 °F - 26.6 °F 35% 30.12 in 10.0 mi SSW 15.0 mph 19.6 mph N/A   Clear
9:55 AM 55.4 °F - 26.6 °F 33% 30.12 in 10.0 mi SSW 15.0 mph 23.0 mph N/A   Clear
10:15 AM 57.2 °F - 28.4 °F 33% 30.11 in 10.0 mi SSW 16.1 mph 20.7 mph N/A   Clear
10:35 AM 59.0 °F - 28.4 °F 31% 30.10 in 10.0 mi SSW 16.1 mph 23.0 mph N/A   Clear
10:55 AM 59.0 °F - 26.6 °F 29% 30.10 in 10.0 mi SSW 18.4 mph - N/A   Clear
11:15 AM 62.6 °F - 28.4 °F 27% 30.09 in 10.0 mi SSW 18.4 mph - N/A   Clear
11:35 AM 64.4 °F - 28.4 °F 26% 30.08 in 10.0 mi SSW 17.3 mph - N/A   Clear
11:55 AM 66.2 °F - 28.4 °F 24% 30.07 in 10.0 mi SSW 17.3 mph 21.9 mph N/A   Clear
12:15 PM 66.2 °F - 26.6 °F 23% 30.05 in 10.0 mi SSW 17.3 mph 24.2 mph N/A   Clear
12:35 PM 68.0 °F - 28.4 °F 23% 30.03 in 10.0 mi South 16.1 mph 23.0 mph N/A   Clear
12:55 PM 68.0 °F - 26.6 °F 21% 30.02 in 10.0 mi SSW 18.4 mph 23.0 mph N/A   Clear
1:15 PM 68.0 °F - 26.6 °F 21% 30.00 in 10.0 mi SSW 18.4 mph 21.9 mph N/A   Clear
1:35 PM 69.8 °F - 26.6 °F 20% 29.99 in 10.0 mi SSW 12.7 mph 24.2 mph N/A   Clear
1:55 PM 71.6 °F - 26.6 °F 19% 29.97 in 10.0 mi SSW 20.7 mph 28.8 mph N/A   Clear
2:15 PM 71.6 °F - 24.8 °F 17% 29.96 in 10.0 mi South 19.6 mph 26.5 mph N/A   Clear
2:35 PM 71.6 °F - 24.8 °F 17% 29.94 in 10.0 mi South 17.3 mph 25.3 mph N/A   Clear
2:55 PM 71.6 °F - 23.0 °F 16% 29.93 in 10.0 mi South 20.7 mph 27.6 mph N/A   Clear
3:15 PM 71.6 °F - 24.8 °F 17% 29.92 in 10.0 mi South 21.9 mph 26.5 mph N/A   Clear
3:35 PM 71.6 °F - 23.0 °F 16% 29.92 in 10.0 mi South 17.3 mph 26.5 mph N/A   Clear
3:55 PM 71.6 °F - 24.8 °F 17% 29.91 in 10.0 mi South 16.1 mph 28.8 mph N/A   Clear
4:15 PM 71.6 °F - 24.8 °F 17% 29.90 in 10.0 mi South 19.6 mph 26.5 mph N/A   Clear
4:35 PM 69.8 °F - 26.6 °F 20% 29.90 in 10.0 mi South 17.3 mph 25.3 mph N/A   Clear
4:55 PM 69.8 °F - 28.4 °F 21% 29.90 in 10.0 mi South 21.9 mph 31.1 mph N/A   Clear
5:15 PM 68.0 °F - 30.2 °F 24% 29.89 in 10.0 mi South 18.4 mph 29.9 mph N/A   Clear
5:35 PM 68.0 °F - 30.2 °F 24% 29.89 in 10.0 mi South 18.4 mph 27.6 mph N/A   Clear
5:55 PM 68.0 °F - 32.0 °F 26% 29.89 in 10.0 mi South 21.9 mph 29.9 mph N/A   Clear
6:15 PM 66.2 °F - 32.0 °F 28% 29.89 in 10.0 mi South 13.8 mph 26.5 mph N/A   Clear
6:35 PM 64.4 °F - 32.0 °F 30% 29.89 in 10.0 mi South 13.8 mph - N/A   Clear
6:55 PM 64.4 °F - 33.8 °F 32% 29.90 in 10.0 mi South 13.8 mph 20.7 mph N/A   Clear
7:15 PM 62.6 °F - 35.6 °F 37% 29.90 in 10.0 mi South 17.3 mph 24.2 mph N/A   Clear
7:35 PM 62.6 °F - 37.4 °F 39% 29.90 in 10.0 mi South 13.8 mph 26.5 mph N/A   Partly Cloudy
7:55 PM 62.6 °F - 37.4 °F 39% 29.90 in 10.0 mi SSE 12.7 mph 18.4 mph N/A   Clear
8:15 PM 60.8 °F - 37.4 °F 42% 29.90 in 10.0 mi South 15.0 mph 18.4 mph N/A   Partly Cloudy
8:35 PM 59.0 °F - 37.4 °F 45% 29.91 in 10.0 mi South 17.3 mph - N/A   Partly Cloudy
8:55 PM 59.0 °F - 39.2 °F 48% 29.91 in 10.0 mi South 15.0 mph - N/A   Partly Cloudy
9:15 PM 59.0 °F - 39.2 °F 48% 29.91 in 10.0 mi South 15.0 mph 20.7 mph N/A   Scattered Clouds
9:35 PM 59.0 °F - 41.0 °F 51% 29.91 in 10.0 mi South 13.8 mph 20.7 mph N/A   Scattered Clouds
9:55 PM 57.2 °F - 41.0 °F 55% 29.90 in 10.0 mi South 12.7 mph - N/A   Mostly Cloudy
10:15 PM 57.2 °F - 41.0 °F 55% 29.90 in 10.0 mi SSE 15.0 mph - N/A   Mostly Cloudy
10:35 PM 57.2 °F - 41.0 °F 55% 29.90 in 10.0 mi South 16.1 mph 24.2 mph N/A   Mostly Cloudy
10:55 PM 57.2 °F - 42.8 °F 59% 29.89 in 10.0 mi South 17.3 mph 21.9 mph N/A   Mostly Cloudy
11:15 PM 57.2 °F - 44.6 °F 63% 29.89 in 10.0 mi SSE 16.1 mph 21.9 mph N/A   Scattered Clouds
11:35 PM 55.4 °F - 44.6 °F 67% 29.88 in 10.0 mi SSE 16.1 mph 19.6 mph N/A   Scattered Clouds
11:55 PM 55.4 °F - 44.6 °F 67% 29.88 in 10.0 mi South 15.0 mph 20.7 mph N/A   Partly Cloudy